Terminal Aerodrome Forecast
Issued by NWS

Home | Current Version | Previous Version | Text Only | Print | Product List | Glossary On
Versions: 1 2 3 4 5 6 7 8 9 10 11 12 13 14 15 16 17 18 19
000
FTUS46 KLOX 251947 AAA
TAFBUR
TAF AMD
KBUR 251947Z 2520/2618 17008KT P6SM OVC035
     FM260400 15006KT P6SM OVC020
     FM260800 16006KT P6SM -DZ OVC030
     FM261500 14006KT P6SM -DZ OVC035=

USA.gov is the U.S. government's official web portal to all federal, state and local government web resources and services.